Time;durP1;ratioP1;P1;durP2;ratioP2;P2;SDS_P1;SDS_P2;PMS_P1;PMS_P2;Temp;Humidity;BMP_temperature;BMP_pressure;BME280_temperature;BME280_humidity;BME280_pressure;Samples;Min_cycle;Max_cycle;Signal;HPM_P1;HPM_P2
2020/12/07 00:01:18;;;;;;;4.53;3.75;;;1.90;99.90;;;;;;1999684;70;21043;-77
2020/12/07 00:03:44;;;;;;;3.98;3.55;;;1.90;99.90;;;;;;2002700;70;21121;-77
2020/12/07 00:06:10;;;;;;;4.62;3.80;;;2.00;99.90;;;;;;2007559;70;21136;-77
2020/12/07 00:08:36;;;;;;;8.98;4.78;;;2.00;99.90;;;;;;2028430;71;21494;-76
2020/12/07 00:11:02;;;;;;;5.12;4.05;;;2.00;99.90;;;;;;2013712;70;21527;-77
2020/12/07 00:13:29;;;;;;;8.23;4.30;;;1.90;99.90;;;;;;1998964;70;21463;-77
2020/12/07 00:15:55;;;;;;;5.95;4.05;;;1.80;99.90;;;;;;2003407;70;21087;-77
2020/12/07 00:18:21;;;;;;;6.50;4.25;;;1.90;99.90;;;;;;2010936;70;21072;-77
2020/12/07 00:20:47;;;;;;;6.62;4.40;;;1.90;99.90;;;;;;2022204;70;21025;-77
2020/12/07 00:23:13;;;;;;;5.05;3.67;;;2.10;99.90;;;;;;2014489;70;21080;-77
2020/12/07 00:25:39;;;;;;;4.53;3.72;;;2.10;99.90;;;;;;2012097;70;21052;-76
2020/12/07 00:28:06;;;;;;;4.92;3.80;;;2.10;99.90;;;;;;2010401;71;21120;-78
2020/12/07 00:30:32;;;;;;;4.60;3.27;;;2.20;99.90;;;;;;2010199;71;21557;-77
2020/12/07 00:32:58;;;;;;;3.40;3.02;;;2.30;99.90;;;;;;2006784;70;21474;-76
2020/12/07 00:35:24;;;;;;;2.72;2.35;;;2.30;99.90;;;;;;2007568;70;21040;-77
2020/12/07 00:37:50;;;;;;;4.58;2.70;;;2.20;99.90;;;;;;1972774;73;21051;-78
2020/12/07 00:40:16;;;;;;;3.60;3.02;;;2.30;99.90;;;;;;2010628;70;21084;-78
2020/12/07 00:42:42;;;;;;;3.17;2.65;;;2.30;99.90;;;;;;2010267;71;21017;-78
2020/12/07 00:45:08;;;;;;;4.60;3.00;;;2.40;99.90;;;;;;2011917;70;21051;-76
2020/12/07 00:47:35;;;;;;;6.95;3.00;;;2.40;99.90;;;;;;2008952;70;21082;-76
2020/12/07 00:50:01;;;;;;;3.62;2.65;;;2.30;99.90;;;;;;2011175;70;21113;-78
2020/12/07 00:52:27;;;;;;;4.25;3.02;;;2.30;99.90;;;;;;2021150;71;21086;-78
2020/12/07 00:54:53;;;;;;;3.90;2.67;;;2.40;99.90;;;;;;2010295;71;21043;-77
2020/12/07 00:57:19;;;;;;;3.60;2.77;;;2.30;99.90;;;;;;2006020;70;21114;-78
2020/12/07 00:59:45;;;;;;;4.42;3.15;;;2.50;99.90;;;;;;2007013;70;21020;-76
2020/12/07 01:02:11;;;;;;;3.90;2.92;;;2.50;99.90;;;;;;1966678;72;21046;-76
2020/12/07 01:04:37;;;;;;;3.02;2.37;;;2.50;99.90;;;;;;1931944;73;21472;-77
2020/12/07 01:07:04;;;;;;;4.10;2.65;;;2.40;99.90;;;;;;2003923;70;21124;-78
2020/12/07 01:09:30;;;;;;;2.92;2.55;;;2.40;99.90;;;;;;1973519;72;21055;-78
2020/12/07 01:11:56;;;;;;;2.27;2.08;;;2.50;99.90;;;;;;2012413;70;21008;-78
2020/12/07 01:14:22;;;;;;;4.65;2.80;;;2.60;99.90;;;;;;2009776;70;21036;-78
2020/12/07 01:16:48;;;;;;;3.40;2.77;;;2.60;99.90;;;;;;1970447;72;21120;-78
2020/12/07 01:19:14;;;;;;;2.70;2.45;;;2.60;99.90;;;;;;1941695;73;21108;-78
2020/12/07 01:21:40;;;;;;;5.47;2.50;;;2.60;99.90;;;;;;2002815;70;21052;-78
2020/12/07 01:24:06;;;;;;;5.95;2.50;;;2.60;99.90;;;;;;2006559;70;21048;-77
2020/12/07 01:26:34;;;;;;;5.87;2.50;;;2.60;99.90;;;;;;2003473;70;21080;-78
2020/12/07 01:29:00;;;;;;;2.67;2.22;;;2.60;99.90;;;;;;2011829;70;21452;-76
2020/12/07 01:31:26;;;;;;;2.72;2.17;;;2.70;99.90;;;;;;2008086;70;21475;-77
2020/12/07 01:33:52;;;;;;;2.98;1.87;;;2.60;99.90;;;;;;2028405;71;21149;-76
2020/12/07 01:36:19;;;;;;;4.12;2.37;;;2.60;99.90;;;;;;2010519;70;21102;-77
2020/12/07 01:38:45;;;;;;;2.50;1.90;;;2.60;99.90;;;;;;2010290;70;21087;-77
2020/12/07 01:41:11;;;;;;;1.87;1.70;;;2.70;99.90;;;;;;2009943;70;21145;-76
2020/12/07 01:43:37;;;;;;;2.47;1.77;;;2.70;99.90;;;;;;2010412;71;21037;-77
2020/12/07 01:46:03;;;;;;;2.62;1.95;;;2.70;99.90;;;;;;2007029;70;21029;-76
2020/12/07 01:48:29;;;;;;;3.55;2.08;;;2.70;99.90;;;;;;2013767;70;21044;-77
2020/12/07 01:50:55;;;;;;;2.30;2.10;;;2.70;99.90;;;;;;2007646;70;21216;-77
2020/12/07 01:53:21;;;;;;;4.70;2.00;;;2.60;99.90;;;;;;1965033;72;21060;-76
2020/12/07 01:55:48;;;;;;;2.27;1.90;;;2.60;99.90;;;;;;2013746;70;21059;-76
2020/12/07 01:58:14;;;;;;;2.58;2.00;;;2.60;99.90;;;;;;1998569;70;21146;-77
2020/12/07 02:00:41;;;;;;;2.08;1.90;;;2.60;99.90;;;;;;2010336;70;21464;-77
2020/12/07 02:03:09;;;;;;;2.42;1.47;;;2.50;99.90;;;;;;1961857;72;21098;-77
2020/12/07 02:05:35;;;;;;;1.70;1.60;;;2.50;99.90;;;;;;2020168;70;21111;-77
2020/12/07 02:08:01;;;;;;;1.75;1.62;;;2.60;99.90;;;;;;2010440;71;21009;-77
2020/12/07 02:10:27;;;;;;;2.65;2.00;;;2.60;99.90;;;;;;2006384;70;21055;-77
2020/12/07 02:12:53;;;;;;;2.80;1.80;;;2.70;99.90;;;;;;2015287;70;21043;-77
2020/12/07 02:15:20;;;;;;;1.72;1.62;;;2.70;99.90;;;;;;2004948;70;21091;-77
2020/12/07 02:17:46;;;;;;;1.67;1.57;;;2.80;99.90;;;;;;1965277;72;21056;-77
2020/12/07 02:20:12;;;;;;;1.32;1.22;;;2.70;99.90;;;;;;2012262;70;21120;-78
2020/12/07 02:22:38;;;;;;;2.95;1.45;;;2.70;99.90;;;;;;2004203;70;21020;-77
2020/12/07 02:25:04;;;;;;;2.00;1.25;;;2.60;99.90;;;;;;2007673;70;21096;-78
2020/12/07 02:27:33;;;;;;;1.35;1.25;;;2.70;99.90;;;;;;1965849;72;21451;-77
2020/12/07 02:29:59;;;;;;;2.85;1.70;;;2.70;99.90;;;;;;2017227;70;21089;-76
2020/12/07 02:32:25;;;;;;;3.27;1.57;;;2.80;99.90;;;;;;2010249;71;21088;-77
2020/12/07 02:34:51;;;;;;;1.30;1.20;;;2.90;99.90;;;;;;2002676;70;21020;-78
2020/12/07 02:37:17;;;;;;;1.72;1.32;;;2.80;99.90;;;;;;2011853;70;21043;-77
2020/12/07 02:39:43;;;;;;;1.10;1.00;;;2.90;99.90;;;;;;2007878;70;21051;-77
2020/12/07 02:42:09;;;;;;;1.47;1.30;;;2.80;99.90;;;;;;1963446;72;21174;-77
2020/12/07 02:44:36;;;;;;;1.30;1.20;;;2.80;99.90;;;;;;2007070;70;21098;-77
2020/12/07 02:47:02;;;;;;;2.12;1.47;;;2.90;99.90;;;;;;2010334;70;21051;-77
2020/12/07 02:49:28;;;;;;;1.75;1.10;;;2.90;99.90;;;;;;2010521;70;21060;-78
2020/12/07 02:51:54;;;;;;;4.10;1.05;;;2.80;99.90;;;;;;1966250;72;21094;-77
2020/12/07 02:54:20;;;;;;;1.40;1.30;;;2.90;99.90;;;;;;2010344;70;21122;-77
2020/12/07 02:56:46;;;;;;;1.35;1.12;;;2.90;99.90;;;;;;2006515;70;21126;-76
2020/12/07 02:59:12;;;;;;;1.47;1.30;;;2.80;99.90;;;;;;2009912;70;21063;-77
2020/12/07 03:01:38;;;;;;;2.12;1.17;;;2.80;99.90;;;;;;2009999;70;21051;-76
2020/12/07 03:04:05;;;;;;;1.00;1.00;;;2.90;99.90;;;;;;2003135;70;21094;-76
2020/12/07 03:06:31;;;;;;;1.27;1.15;;;2.80;99.90;;;;;;2013378;70;21038;-77
2020/12/07 03:08:57;;;;;;;1.47;1.12;;;2.80;99.90;;;;;;2010367;71;21109;-77
2020/12/07 03:11:23;;;;;;;1.35;1.00;;;2.90;99.90;;;;;;2017023;70;21051;-78
2020/12/07 03:13:49;;;;;;;1.60;1.10;;;2.90;99.90;;;;;;2007876;70;21031;-76
2020/12/07 03:16:15;;;;;;;1.20;1.12;;;2.90;99.90;;;;;;2016855;70;21496;-77
2020/12/07 03:18:41;;;;;;;1.20;1.10;;;2.90;99.90;;;;;;1970657;73;21412;-76
2020/12/07 03:21:09;;;;;;;0.85;0.85;;;2.80;99.90;;;;;;2015109;70;21592;-78
2020/12/07 03:23:35;;;;;;;1.17;0.90;;;2.90;99.90;;;;;;1980693;71;21144;-77
2020/12/07 03:26:01;;;;;;;1.22;1.10;;;2.90;99.90;;;;;;2003452;70;21145;-78
2020/12/07 03:28:27;;;;;;;1.35;0.88;;;2.90;99.90;;;;;;2021453;70;21073;-76
2020/12/07 03:30:53;;;;;;;1.20;1.10;;;3.00;99.90;;;;;;2010298;70;21059;-78
2020/12/07 03:33:19;;;;;;;2.42;0.80;;;3.00;99.90;;;;;;2011900;70;21545;-78
2020/12/07 03:35:45;;;;;;;1.00;0.90;;;2.90;99.90;;;;;;1968157;72;21534;-78
2020/12/07 03:38:12;;;;;;;1.30;0.98;;;3.00;99.90;;;;;;1926323;73;21068;-78
2020/12/07 03:40:38;;;;;;;0.90;0.90;;;3.00;99.90;;;;;;2010311;70;21109;-76
2020/12/07 03:43:04;;;;;;;1.50;0.82;;;3.00;99.90;;;;;;2010297;70;21060;-77
2020/12/07 03:45:30;;;;;;;0.90;0.90;;;2.90;99.90;;;;;;2013174;70;21047;-77
2020/12/07 03:47:56;;;;;;;0.98;0.85;;;3.00;99.90;;;;;;2013690;71;21017;-77
2020/12/07 03:50:22;;;;;;;1.05;1.00;;;3.00;99.90;;;;;;2006755;70;21174;-77
2020/12/07 03:52:48;;;;;;;0.78;0.78;;;3.00;99.90;;;;;;2013940;71;21039;-76
2020/12/07 03:55:14;;;;;;;1.30;1.20;;;3.00;99.90;;;;;;2006534;70;21048;-76
2020/12/07 03:57:40;;;;;;;0.68;0.65;;;3.10;99.90;;;;;;1999724;70;21044;-77
2020/12/07 04:00:07;;;;;;;0.93;0.93;;;3.10;99.90;;;;;;2004620;70;21059;-77
2020/12/07 04:02:33;;;;;;;0.95;0.70;;;3.10;99.90;;;;;;1959697;72;21051;-77
2020/12/07 04:05:07;;;;;;;0.85;0.80;;;3.20;99.90;;;;;;2010354;71;21036;-77
2020/12/07 04:07:30;;;;;;;0.60;0.60;;;3.10;99.90;;;;;;2009539;71;21037;-76
2020/12/07 04:09:56;;;;;;;1.10;1.00;;;3.10;99.90;;;;;;2019680;70;21095;-77
2020/12/07 04:12:22;;;;;;;1.12;1.10;;;3.20;99.90;;;;;;2001117;70;21020;-76
2020/12/07 04:14:48;;;;;;;1.02;0.95;;;3.10;99.90;;;;;;1967102;73;21044;-77
2020/12/07 04:17:14;;;;;;;1.95;0.85;;;3.20;99.90;;;;;;2009812;70;21460;-76
2020/12/07 04:19:40;;;;;;;1.22;1.12;;;3.20;99.90;;;;;;2004740;70;21470;-77
2020/12/07 04:22:06;;;;;;;1.52;1.00;;;3.20;99.90;;;;;;2028214;71;21442;-77
2020/12/07 04:24:32;;;;;;;1.92;1.10;;;3.20;99.90;;;;;;2028428;71;21072;-77
2020/12/07 04:26:59;;;;;;;1.17;1.00;;;3.20;99.90;;;;;;2015062;70;21020;-76
2020/12/07 04:29:25;;;;;;;0.85;0.80;;;3.20;99.90;;;;;;2011202;70;21056;-76
2020/12/07 04:31:53;;;;;;;1.20;0.95;;;3.20;99.90;;;;;;2006857;70;21051;-77
2020/12/07 04:34:19;;;;;;;0.90;0.90;;;3.20;99.90;;;;;;2010288;71;21443;-77
2020/12/07 04:36:45;;;;;;;1.00;0.90;;;3.30;99.90;;;;;;2010402;70;21125;-76
2020/12/07 04:39:11;;;;;;;0.78;0.78;;;3.30;99.90;;;;;;2006647;70;21046;-76
2020/12/07 04:41:37;;;;;;;0.90;0.90;;;3.20;99.90;;;;;;1999185;70;21092;-76
2020/12/07 04:44:03;;;;;;;1.27;1.17;;;3.20;99.90;;;;;;2010546;71;21009;-77
2020/12/07 04:46:29;;;;;;;1.40;1.30;;;3.20;99.90;;;;;;2006989;70;21044;-76
2020/12/07 04:48:55;;;;;;;1.52;1.42;;;3.20;99.90;;;;;;2010328;70;21105;-76
2020/12/07 04:51:21;;;;;;;0.88;0.88;;;3.20;99.90;;;;;;2010324;71;21040;-76
2020/12/07 04:53:48;;;;;;;2.15;1.00;;;3.20;99.90;;;;;;2000888;70;21096;-76
2020/12/07 04:56:14;;;;;;;2.55;1.65;;;3.20;99.90;;;;;;1969626;73;21036;-77
2020/12/07 04:58:40;;;;;;;4.37;1.77;;;3.20;99.90;;;;;;2018513;70;21099;-77
2020/12/07 05:01:06;;;;;;;2.40;2.00;;;3.20;99.90;;;;;;2012205;70;21056;-77
2020/12/07 05:03:32;;;;;;;2.27;1.45;;;3.00;99.90;;;;;;2003194;70;21393;-76
2020/12/07 05:06:00;;;;;;;1.72;1.62;;;3.10;99.90;;;;;;2009962;70;21478;-76
2020/12/07 05:08:26;;;;;;;1.50;1.40;;;3.00;99.90;;;;;;2010004;71;21095;-76
2020/12/07 05:10:54;;;;;;;1.57;1.47;;;3.10;99.90;;;;;;2009191;70;21069;-77
2020/12/07 05:13:59;;;;;;;3.05;1.72;;;3.10;99.90;;;;;;2008818;70;21062;-76
2020/12/07 05:15:53;;;;;;;1.12;1.02;;;3.20;99.90;;;;;;1994944;70;21534;-77
2020/12/07 05:18:19;;;;;;;1.82;1.20;;;3.20;99.90;;;;;;2014522;70;21577;-77
2020/12/07 05:20:45;;;;;;;0.78;0.68;;;3.20;99.90;;;;;;2021414;70;21137;-76
2020/12/07 05:23:12;;;;;;;0.95;0.95;;;3.20;99.90;;;;;;2010224;70;21096;-76
2020/12/07 05:25:38;;;;;;;1.30;0.90;;;3.20;99.90;;;;;;2010402;71;21105;-76
2020/12/07 05:28:04;;;;;;;0.70;0.70;;;3.20;99.90;;;;;;2004288;70;21129;-77
2020/12/07 05:30:33;;;;;;;0.98;0.98;;;3.20;99.90;;;;;;2008477;70;21051;-76
2020/12/07 05:32:58;;;;;;;1.22;1.05;;;3.20;99.90;;;;;;2009895;71;21060;-77
2020/12/07 05:35:24;;;;;;;2.20;0.88;;;3.20;99.90;;;;;;2010217;70;21064;-76
2020/12/07 05:37:50;;;;;;;2.80;1.02;;;3.10;99.90;;;;;;2006196;70;21042;-76
2020/12/07 05:40:16;;;;;;;0.82;0.82;;;3.20;99.90;;;;;;2005434;70;21027;-76
2020/12/07 05:42:43;;;;;;;1.20;1.10;;;3.20;99.90;;;;;;1960439;72;21128;-76
2020/12/07 05:45:09;;;;;;;1.10;1.10;;;3.20;99.90;;;;;;2007482;70;21063;-76
2020/12/07 05:47:37;;;;;;;1.20;1.00;;;3.20;99.90;;;;;;1971363;72;21529;-76
2020/12/07 05:50:03;;;;;;;1.52;1.40;;;3.20;99.90;;;;;;2009745;70;21067;-76
2020/12/07 05:52:29;;;;;;;1.20;1.10;;;3.20;99.90;;;;;;2010645;70;21071;-76
2020/12/07 05:54:55;;;;;;;2.10;1.22;;;3.20;99.90;;;;;;1962024;72;21072;-76
2020/12/07 05:57:21;;;;;;;1.45;1.27;;;3.20;99.90;;;;;;2001202;70;21490;-75
2020/12/07 05:59:47;;;;;;;1.27;1.17;;;3.20;99.90;;;;;;2013508;70;21439;-76
2020/12/07 06:02:13;;;;;;;1.15;1.05;;;3.20;99.90;;;;;;2006659;70;21438;-76
2020/12/07 06:04:40;;;;;;;5.58;1.32;;;3.10;99.90;;;;;;2015323;70;21118;-76
2020/12/07 06:07:06;;;;;;;1.32;1.22;;;3.10;99.90;;;;;;1969364;72;21051;-77
2020/12/07 06:09:32;;;;;;;2.25;1.12;;;3.20;99.90;;;;;;1941736;73;21048;-76
2020/12/07 06:11:58;;;;;;;1.45;1.07;;;3.10;99.90;;;;;;1929704;73;21173;-76
2020/12/07 06:14:24;;;;;;;3.00;1.45;;;3.20;99.90;;;;;;2009908;71;21064;-81
2020/12/07 06:16:51;;;;;;;3.95;1.35;;;3.10;99.90;;;;;;1998837;70;21041;-81
2020/12/07 06:19:17;;;;;;;1.90;1.65;;;3.00;99.90;;;;;;2014702;70;21055;-81
2020/12/07 06:21:44;;;;;;;2.15;1.70;;;2.90;99.90;;;;;;2015259;71;21063;-82
2020/12/07 06:24:10;;;;;;;5.67;1.60;;;3.00;99.90;;;;;;2013215;70;21095;-79
2020/12/07 06:26:36;;;;;;;4.72;3.00;;;3.10;99.90;;;;;;2009873;70;21083;-72
2020/12/07 06:29:02;;;;;;;2.83;2.08;;;3.00;99.90;;;;;;2009530;70;21089;-73
2020/12/07 06:31:28;;;;;;;7.42;2.20;;;3.00;99.90;;;;;;2006404;70;21108;-74
2020/12/07 06:33:54;;;;;;;2.40;2.20;;;3.10;99.90;;;;;;2009887;71;21124;-74
2020/12/07 06:36:20;;;;;;;3.85;2.33;;;3.00;99.90;;;;;;2006289;70;21533;-74
2020/12/07 06:38:46;;;;;;;2.35;2.00;;;3.00;99.90;;;;;;2009753;71;21461;-73
2020/12/07 06:41:12;;;;;;;3.60;1.92;;;3.00;99.90;;;;;;2006569;70;21440;-73
2020/12/07 06:43:39;;;;;;;6.03;2.35;;;3.10;99.90;;;;;;2008797;70;21051;-80
2020/12/07 06:46:05;;;;;;;5.35;2.20;;;3.00;99.90;;;;;;1959412;72;21114;-75
2020/12/07 06:48:34;;;;;;;2.67;2.12;;;3.00;99.90;;;;;;2008456;70;21035;-76
2020/12/07 06:50:59;;;;;;;2.05;1.32;;;3.00;99.90;;;;;;1971778;72;21506;-75
2020/12/07 06:53:39;;;;;;;1.95;1.40;;;3.10;99.90;;;;;;2006557;70;21460;-75
2020/12/07 06:55:53;;;;;;;1.70;1.47;;;3.20;99.90;;;;;;2003333;70;21144;-73
2020/12/07 06:58:19;;;;;;;2.20;1.50;;;3.20;99.90;;;;;;1962825;73;21103;-74
2020/12/07 07:00:45;;;;;;;1.55;1.45;;;3.10;99.90;;;;;;2005317;70;21492;-75
2020/12/07 07:03:11;;;;;;;2.55;1.72;;;3.10;99.90;;;;;;1962538;72;21512;-74
2020/12/07 07:05:37;;;;;;;2.10;1.70;;;3.10;99.90;;;;;;2019465;70;21513;-77
2020/12/07 07:08:05;;;;;;;2.02;1.80;;;3.10;99.90;;;;;;2002785;70;21055;-75
2020/12/07 07:10:31;;;;;;;2.85;1.70;;;3.20;99.90;;;;;;2006056;70;21116;-76
2020/12/07 07:12:58;;;;;;;6.08;1.62;;;3.20;99.90;;;;;;2009829;70;21129;-75
2020/12/07 07:15:24;;;;;;;7.25;2.02;;;3.20;99.90;;;;;;2007165;70;21114;-75
2020/12/07 07:17:50;;;;;;;7.03;2.62;;;3.20;99.90;;;;;;1964946;72;21031;-75
2020/12/07 07:20:16;;;;;;;3.47;2.40;;;3.20;99.90;;;;;;1941536;73;21106;-75
2020/12/07 07:22:45;;;;;;;2.57;2.37;;;3.10;99.90;;;;;;1937848;73;21141;-75
2020/12/07 07:30:24;;;;;;;3.98;2.05;;;3.20;99.90;;;;;;2019923;70;21076;-74
2020/12/07 07:32:50;;;;;;;3.05;2.25;;;3.20;99.90;;;;;;2009992;71;21025;-74
2020/12/07 07:35:16;;;;;;;5.08;2.58;;;3.30;99.90;;;;;;2009472;70;21117;-74
2020/12/07 07:37:42;;;;;;;3.92;2.35;;;3.30;99.90;;;;;;1966982;72;21036;-74
2020/12/07 07:40:08;;;;;;;4.00;2.08;;;3.30;99.90;;;;;;2011335;70;21114;-75
2020/12/07 07:42:34;;;;;;;4.45;2.17;;;3.30;99.90;;;;;;2005993;70;21039;-75
2020/12/07 07:45:02;;;;;;;4.17;2.60;;;3.30;99.90;;;;;;2004870;70;21042;-75
2020/12/07 07:47:39;;;;;;;3.77;2.35;;;3.40;99.90;;;;;;1967142;72;21146;-75
2020/12/07 07:57:48;;;;;;;4.75;2.85;;;3.60;99.90;;;;;;2014612;70;21092;-75
2020/12/07 07:58:11;;;;;;;8.05;2.40;;;3.60;99.90;;;;;;2006969;70;21509;-75
2020/12/07 08:15:56;;;;;;;3.92;2.90;;;3.70;99.90;;;;;;2009504;70;21111;-76
2020/12/07 08:18:22;;;;;;;9.03;3.40;;;3.60;99.90;;;;;;2006371;70;21056;-76
2020/12/07 08:20:48;;;;;;;3.15;2.60;;;3.70;99.90;;;;;;2004998;70;21013;-77
2020/12/07 08:23:14;;;;;;;4.50;2.40;;;3.70;99.90;;;;;;2011445;70;21068;-77
2020/12/07 08:25:40;;;;;;;3.37;2.52;;;3.80;99.90;;;;;;2002419;70;21511;-79
2020/12/07 08:28:06;;;;;;;3.50;2.47;;;3.70;99.90;;;;;;2007413;70;21486;-74
2020/12/07 08:30:33;;;;;;;7.90;2.92;;;3.80;99.90;;;;;;1961323;72;21484;-75
2020/12/07 08:32:59;;;;;;;6.22;3.10;;;3.80;99.90;;;;;;2003198;70;21100;-76
2020/12/07 08:35:25;;;;;;;4.78;3.42;;;3.80;99.90;;;;;;2010190;70;21109;-76
2020/12/07 08:37:51;;;;;;;5.28;3.42;;;4.00;99.90;;;;;;1967681;72;21020;-79
2020/12/07 08:40:19;;;;;;;3.95;2.80;;;4.10;99.90;;;;;;2004056;70;21055;-77
2020/12/07 08:42:45;;;;;;;3.87;2.87;;;4.30;99.90;;;;;;2011537;71;21475;-79
2020/12/07 08:45:11;;;;;;;3.90;2.20;;;4.50;99.90;;;;;;2014402;70;21055;-77
2020/12/07 08:47:37;;;;;;;7.80;2.27;;;4.60;99.90;;;;;;2011856;70;21047;-78
2020/12/07 08:50:03;;;;;;;6.78;2.65;;;4.80;99.90;;;;;;2012535;71;21105;-79
2020/12/07 08:52:29;;;;;;;3.83;2.40;;;5.10;99.90;;;;;;2007073;70;21110;-80
2020/12/07 08:54:55;;;;;;;4.92;3.17;;;5.00;99.90;;;;;;2010376;71;21039;-80
2020/12/07 08:57:22;;;;;;;11.60;2.42;;;5.10;99.90;;;;;;2009623;70;21043;-78
2020/12/07 08:59:48;;;;;;;3.17;2.47;;;5.10;99.90;;;;;;1944153;72;21128;-80
2020/12/07 09:02:14;;;;;;;2.37;1.90;;;5.20;99.90;;;;;;1937860;73;21066;-79
2020/12/07 09:04:40;;;;;;;9.70;2.40;;;5.30;99.90;;;;;;1934802;74;21060;-79
2020/12/07 09:07:06;;;;;;;3.27;1.95;;;5.30;99.90;;;;;;1932263;73;21041;-78
2020/12/07 09:09:32;;;;;;;8.33;2.00;;;5.30;99.90;;;;;;1928318;73;21052;-78
2020/12/07 09:11:58;;;;;;;6.42;2.72;;;5.40;99.90;;;;;;1935797;73;21044;-80
2020/12/07 09:14:24;;;;;;;2.83;2.20;;;5.30;99.90;;;;;;1935479;73;21121;-79
2020/12/07 09:16:51;;;;;;;3.62;2.47;;;5.50;99.90;;;;;;1945539;74;21084;-79
2020/12/07 09:19:17;;;;;;;3.12;2.12;;;5.90;99.90;;;;;;1938995;73;21118;-79
2020/12/07 09:21:43;;;;;;;3.02;1.87;;;5.90;99.90;;;;;;1932077;73;21117;-77
2020/12/07 09:24:09;;;;;;;2.87;2.10;;;6.00;99.90;;;;;;1931209;74;21060;-80
2020/12/07 09:26:35;;;;;;;4.67;2.58;;;6.20;99.90;;;;;;1927240;73;21041;-81
2020/12/07 09:29:01;;;;;;;2.77;2.27;;;6.30;99.90;;;;;;1932235;73;21114;-80
2020/12/07 09:31:27;;;;;;;3.62;2.70;;;6.40;99.90;;;;;;1932264;73;21173;-80
2020/12/07 09:33:53;;;;;;;2.75;1.87;;;6.60;99.90;;;;;;1927253;73;21124;-78
2020/12/07 09:36:20;;;;;;;3.65;1.75;;;6.60;99.90;;;;;;1932203;74;21118;-78
2020/12/07 09:38:46;;;;;;;4.22;1.95;;;6.70;99.90;;;;;;1930776;73;21052;-78
2020/12/07 09:41:12;;;;;;;5.58;1.67;;;6.00;99.90;;;;;;1928694;73;21468;-78
2020/12/07 09:43:38;;;;;;;2.00;1.57;;;6.30;99.90;;;;;;1933226;73;21533;-78
2020/12/07 09:46:04;;;;;;;1.62;1.40;;;6.80;99.90;;;;;;1932582;73;21498;-79
2020/12/07 09:48:30;;;;;;;2.65;1.35;;;7.20;99.90;;;;;;1932282;74;21517;-79
2020/12/07 09:50:56;;;;;;;2.35;1.20;;;7.50;99.90;;;;;;1925132;73;21123;-80
2020/12/07 09:53:22;;;;;;;6.47;1.42;;;7.40;99.90;;;;;;1932704;73;21029;-79
2020/12/07 09:55:49;;;;;;;2.12;1.32;;;7.60;99.90;;;;;;1930238;73;21071;-79
2020/12/07 09:58:16;;;;;;;2.87;1.55;;;7.50;99.90;;;;;;1932143;74;21067;-79
2020/12/07 10:00:42;;;;;;;2.42;1.30;;;7.20;99.90;;;;;;1931324;73;21054;-80
2020/12/07 10:03:08;;;;;;;1.87;1.42;;;7.10;99.90;;;;;;1937754;73;21168;-78
2020/12/07 10:05:34;;;;;;;2.27;1.57;;;7.30;99.90;;;;;;1936683;73;21125;-80
2020/12/07 10:08:00;;;;;;;1.77;1.32;;;7.00;99.90;;;;;;1922664;73;21136;-81
2020/12/07 10:10:26;;;;;;;1.72;1.02;;;7.20;99.90;;;;;;1930056;73;21072;-79
2020/12/07 10:12:52;;;;;;;1.25;1.00;;;7.50;99.90;;;;;;1930408;73;21040;-81
2020/12/07 10:15:18;;;;;;;1.15;1.10;;;7.70;99.90;;;;;;1932340;74;21062;-79
2020/12/07 10:17:45;;;;;;;1.57;1.32;;;7.50;99.90;;;;;;1930095;73;21120;-80
2020/12/07 10:20:11;;;;;;;1.72;1.55;;;7.30;99.90;;;;;;1933186;73;21063;-79
2020/12/07 10:22:37;;;;;;;5.17;1.35;;;7.60;99.90;;;;;;1938419;73;21184;-79
2020/12/07 10:25:03;;;;;;;1.65;1.25;;;7.70;99.90;;;;;;1932654;73;21074;-80
2020/12/07 10:27:29;;;;;;;2.20;1.35;;;7.10;99.90;;;;;;1937646;73;21451;-81
2020/12/07 10:29:55;;;;;;;2.22;1.67;;;6.50;99.90;;;;;;1943695;73;21462;-78
2020/12/07 10:32:21;;;;;;;5.75;2.33;;;6.50;99.90;;;;;;1931824;73;21565;-80
2020/12/07 10:34:47;;;;;;;2.47;1.35;;;6.30;99.90;;;;;;1930077;73;21525;-78
2020/12/07 10:37:15;;;;;;;2.87;1.30;;;6.30;99.90;;;;;;1932101;73;21073;-78
2020/12/07 10:39:41;;;;;;;1.35;1.17;;;6.40;99.90;;;;;;1932345;74;21468;-77
2020/12/07 10:42:08;;;;;;;5.58;1.12;;;6.90;99.90;;;;;;1932669;73;21456;-77
2020/12/07 10:44:34;;;;;;;2.00;1.52;;;7.40;99.90;;;;;;1944875;74;21545;-78
2020/12/07 10:47:00;;;;;;;1.65;1.10;;;7.40;99.90;;;;;;1933689;74;21533;-76
2020/12/07 10:49:26;;;;;;;3.98;1.42;;;7.80;99.90;;;;;;1940731;73;21071;-76
2020/12/07 10:51:52;;;;;;;2.10;1.60;;;7.50;99.90;;;;;;1937087;74;21060;-78
2020/12/07 10:54:18;;;;;;;1.35;1.20;;;7.30;99.90;;;;;;1925519;73;21071;-78
2020/12/07 10:56:44;;;;;;;3.67;1.00;;;7.70;99.90;;;;;;1926461;73;21049;-78
2020/12/07 10:59:11;;;;;;;1.00;0.85;;;8.60;99.90;;;;;;1932082;73;21036;-79
2020/12/07 11:01:37;;;;;;;3.20;1.70;;;8.90;99.90;;;;;;1937325;73;21067;-79
2020/12/07 11:04:03;;;;;;;2.20;1.00;;;9.20;99.90;;;;;;1934509;73;21138;-79
2020/12/07 11:06:35;;;;;;;1.95;1.20;;;9.20;99.90;;;;;;1939606;73;21479;-79
2020/12/07 11:09:05;;;;;;;2.40;0.95;;;9.40;99.90;;;;;;1932101;74;21129;-79
2020/12/07 11:11:27;;;;;;;2.60;1.05;;;8.50;99.90;;;;;;1931547;73;21180;-77
2020/12/07 11:13:53;;;;;;;1.50;1.20;;;8.10;99.90;;;;;;1930078;73;21040;-78
2020/12/07 11:16:19;;;;;;;1.60;1.50;;;8.00;99.90;;;;;;1943757;73;21063;-79
2020/12/07 11:18:46;;;;;;;1.42;1.15;;;8.60;99.90;;;;;;1937617;73;21076;-79
2020/12/07 11:21:15;;;;;;;1.22;1.00;;;8.40;99.90;;;;;;1933512;73;21067;-79
2020/12/07 11:23:41;;;;;;;1.85;1.30;;;8.00;99.90;;;;;;1931439;74;21125;-78
2020/12/07 11:26:07;;;;;;;1.42;1.32;;;7.50;99.90;;;;;;1932125;74;21169;-79
2020/12/07 11:28:33;;;;;;;0.98;0.80;;;6.80;99.90;;;;;;1929862;73;21133;-78
2020/12/07 11:30:59;;;;;;;1.70;1.27;;;6.90;99.90;;;;;;1932141;74;21118;-77
2020/12/07 11:33:26;;;;;;;1.30;1.20;;;7.00;99.90;;;;;;1929543;73;21129;-77
2020/12/07 11:35:52;;;;;;;1.52;1.25;;;6.90;99.90;;;;;;1936652;74;21125;-75
2020/12/07 11:38:21;;;;;;;1.45;1.12;;;6.90;99.90;;;;;;1927940;73;21066;-75
2020/12/07 11:46:03;;;;;;;1.22;1.10;;;6.90;99.90;;;;;;1932319;73;21033;-76
2020/12/07 11:48:30;;;;;;;1.05;0.90;;;7.00;99.90;;;;;;1931799;73;21158;-75
2020/12/07 11:50:56;;;;;;;1.30;1.00;;;6.80;99.90;;;;;;1933487;73;21066;-76
2020/12/07 11:53:22;;;;;;;1.42;1.00;;;6.60;99.90;;;;;;1931399;73;21139;-78
2020/12/07 11:55:48;;;;;;;1.30;1.10;;;6.60;99.90;;;;;;1931702;73;21074;-75
2020/12/07 11:58:15;;;;;;;1.15;1.10;;;6.30;99.90;;;;;;1936336;73;21126;-75
2020/12/07 12:00:41;;;;;;;1.95;1.50;;;6.30;99.90;;;;;;1930647;73;21141;-76
2020/12/07 12:03:08;;;;;;;2.15;1.42;;;6.30;99.90;;;;;;1933359;74;21181;-76
2020/12/07 12:05:34;;;;;;;1.30;0.98;;;6.40;99.90;;;;;;1929927;73;21045;-75
2020/12/07 12:08:00;;;;;;;2.65;1.30;;;6.70;99.90;;;;;;1932053;73;21071;-75
2020/12/07 12:10:26;;;;;;;1.52;1.25;;;7.20;99.90;;;;;;1933719;73;21137;-75
2020/12/07 12:12:52;;;;;;;1.42;1.10;;;6.80;99.90;;;;;;1930912;73;21542;-75
2020/12/07 12:15:18;;;;;;;1.37;1.27;;;6.60;99.90;;;;;;1934570;74;21498;-75
2020/12/07 12:17:44;;;;;;;1.47;1.30;;;6.60;99.90;;;;;;1932059;74;21559;-76
2020/12/07 12:20:10;;;;;;;1.22;1.12;;;6.60;99.90;;;;;;1932244;73;21573;-76
2020/12/07 12:22:37;;;;;;;1.20;1.10;;;6.40;99.90;;;;;;1937865;73;21059;-76
2020/12/07 12:25:03;;;;;;;1.95;1.32;;;6.40;99.90;;;;;;1935047;73;21140;-76
2020/12/07 12:27:29;;;;;;;1.15;0.98;;;6.50;99.90;;;;;;1930788;73;21126;-76
2020/12/07 12:29:55;;;;;;;2.85;1.32;;;6.50;99.90;;;;;;1931746;73;21052;-76
2020/12/07 12:32:21;;;;;;;0.95;0.90;;;6.50;99.90;;;;;;1933800;73;21060;-74
2020/12/07 12:34:47;;;;;;;1.32;1.15;;;6.30;99.90;;;;;;1934223;73;21192;-74
2020/12/07 12:37:13;;;;;;;1.32;1.10;;;6.30;99.90;;;;;;1937350;73;21121;-75
2020/12/07 12:39:39;;;;;;;1.27;1.17;;;6.30;99.90;;;;;;1931704;73;21202;-75
2020/12/07 12:42:05;;;;;;;1.95;1.10;;;6.30;99.90;;;;;;1929053;73;21128;-75
2020/12/07 12:44:32;;;;;;;2.58;1.12;;;6.10;99.90;;;;;;1934573;74;21033;-75
2020/12/07 12:46:58;;;;;;;2.17;1.17;;;6.10;99.90;;;;;;1932209;74;21164;-75
2020/12/07 12:49:24;;;;;;;1.47;1.12;;;6.00;99.90;;;;;;1933038;73;21141;-75
2020/12/07 12:51:50;;;;;;;1.75;1.42;;;5.90;99.90;;;;;;1942329;73;21161;-75
2020/12/07 12:54:17;;;;;;;2.17;1.20;;;5.80;99.90;;;;;;1932155;74;21472;-75
2020/12/07 12:56:43;;;;;;;1.75;1.07;;;5.90;99.90;;;;;;1932226;73;21142;-74
2020/12/07 12:59:09;;;;;;;2.05;1.25;;;6.10;99.90;;;;;;1927525;73;21498;-75
2020/12/07 13:01:36;;;;;;;1.57;0.70;;;6.70;99.90;;;;;;1929822;73;21518;-75
2020/12/07 13:04:02;;;;;;;0.80;0.80;;;7.40;99.90;;;;;;1932185;73;21457;-75
2020/12/07 13:06:28;;;;;;;0.95;0.95;;;7.70;99.90;;;;;;1937583;74;21586;-75
2020/12/07 13:08:54;;;;;;;1.00;0.90;;;8.10;99.90;;;;;;1935944;73;21115;-75
2020/12/07 13:11:20;;;;;;;0.85;0.60;;;8.50;99.90;;;;;;1932204;74;21056;-75
2020/12/07 13:13:46;;;;;;;0.95;0.72;;;8.50;99.90;;;;;;1930514;73;21074;-75
2020/12/07 13:16:15;;;;;;;1.05;0.82;;;7.60;99.90;;;;;;1932088;73;21044;-75
2020/12/07 13:18:50;;;;;;;1.07;0.85;;;7.10;99.90;;;;;;1928905;73;21435;-76
2020/12/07 13:21:20;;;;;;;2.20;1.20;;;6.60;99.90;;;;;;1935887;73;21116;-75
2020/12/07 13:23:56;;;;;;;1.57;1.10;;;6.30;99.90;;;;;;1935403;73;21163;-75